Time;durP1;ratioP1;P1;durP2;ratioP2;P2;SDS_P1;SDS_P2;PMS_P1;PMS_P2;Temp;Humidity;BMP_temperature;BMP_pressure;BME280_temperature;BME280_humidity;BME280_pressure;Samples;Min_cycle;Max_cycle;Signal;HPM_P1;HPM_P2
2022/04/21 00:01:12;;;;;;;11.10;9.97;;;4.60;99.90;;;;;;5092282;28;20206;-77
2022/04/21 00:03:40;;;;;;;9.73;8.93;;;4.60;99.90;;;;;;5088251;28;20198;-77
2022/04/21 00:06:07;;;;;;;10.50;9.50;;;4.60;99.90;;;;;;5063921;28;20543;-76
2022/04/21 00:08:34;;;;;;;9.83;8.93;;;4.60;99.90;;;;;;5063053;28;20298;-76
2022/04/21 00:11:01;;;;;;;10.53;9.33;;;4.70;99.90;;;;;;5088890;28;20214;-77
2022/04/21 00:13:28;;;;;;;9.93;8.97;;;4.60;99.90;;;;;;5081923;28;20263;-77
2022/04/21 00:15:54;;;;;;;10.27;9.27;;;4.60;99.90;;;;;;5088060;28;20598;-77
2022/04/21 00:18:21;;;;;;;9.83;8.90;;;4.60;99.90;;;;;;5082579;28;20356;-78
2022/04/21 00:20:49;;;;;;;10.33;9.40;;;4.60;99.90;;;;;;5085405;28;20620;-77
2022/04/21 00:23:27;;;;;;;10.57;9.57;;;4.60;99.90;;;;;;5083138;28;20251;-77
2022/04/21 00:25:55;;;;;;;10.63;9.67;;;4.60;99.90;;;;;;5080623;28;20224;-77
2022/04/21 00:28:22;;;;;;;9.90;8.90;;;4.70;99.90;;;;;;5081942;28;20209;-76
2022/04/21 00:30:49;;;;;;;9.43;8.53;;;4.70;99.90;;;;;;5080056;28;20267;-77
2022/04/21 00:33:16;;;;;;;9.93;9.03;;;4.60;99.90;;;;;;5086644;28;20272;-76
2022/04/21 00:35:44;;;;;;;10.33;9.33;;;4.50;99.90;;;;;;5074115;28;20280;-76
2022/04/21 00:38:12;;;;;;;10.03;9.03;;;4.40;99.90;;;;;;5083869;28;20235;-76
2022/04/21 00:40:39;;;;;;;9.77;8.77;;;4.30;99.90;;;;;;5065392;28;20882;-77
2022/04/21 00:43:06;;;;;;;10.03;8.90;;;4.20;99.90;;;;;;5083682;28;20186;-76
2022/04/21 00:45:33;;;;;;;10.43;9.33;;;4.20;99.90;;;;;;5075274;28;20209;-77
2022/04/21 00:48:02;;;;;;;10.93;9.93;;;4.20;99.90;;;;;;5083544;28;20216;-77
2022/04/21 00:50:31;;;;;;;10.77;9.67;;;4.10;99.90;;;;;;5080978;28;20264;-77
2022/04/21 00:52:59;;;;;;;10.70;9.57;;;4.10;99.90;;;;;;5060247;28;20194;-77
2022/04/21 00:55:27;;;;;;;11.23;9.93;;;4.10;99.90;;;;;;5081625;28;20548;-77
2022/04/21 00:57:55;;;;;;;9.23;8.47;;;4.10;99.90;;;;;;5059626;28;20262;-76
2022/04/21 01:00:22;;;;;;;10.20;9.30;;;4.10;99.90;;;;;;5082005;28;20229;-77
2022/04/21 01:02:49;;;;;;;11.47;10.37;;;4.20;99.90;;;;;;5079812;28;20247;-77
2022/04/21 01:05:17;;;;;;;10.90;9.90;;;4.20;99.90;;;;;;5088371;28;20630;-76
2022/04/21 01:07:45;;;;;;;10.70;9.77;;;4.20;99.90;;;;;;5066517;28;20201;-76
2022/04/21 01:10:12;;;;;;;10.73;9.53;;;4.20;99.90;;;;;;5083297;28;20556;-77
2022/04/21 01:12:42;;;;;;;10.80;9.80;;;4.30;99.90;;;;;;5083102;28;20235;-75
2022/04/21 01:15:10;;;;;;;10.03;9.10;;;4.30;99.90;;;;;;5083538;28;20194;-77
2022/04/21 01:17:39;;;;;;;10.73;9.40;;;4.30;99.90;;;;;;5082391;28;20190;-77
2022/04/21 01:20:07;;;;;;;9.97;9.07;;;4.20;99.90;;;;;;5083723;28;20214;-76
2022/04/21 01:22:36;;;;;;;10.13;9.17;;;4.10;99.90;;;;;;5067050;28;20212;-76
2022/04/21 01:25:03;;;;;;;10.30;9.30;;;4.00;99.90;;;;;;5072160;28;20686;-76
2022/04/21 01:27:33;;;;;;;10.60;9.60;;;3.90;99.90;;;;;;5065055;28;20217;-76
2022/04/21 01:30:02;;;;;;;11.30;10.20;;;3.80;99.90;;;;;;5065148;28;20240;-76
2022/04/21 01:32:31;;;;;;;10.80;9.70;;;3.80;99.90;;;;;;5066117;28;20194;-76
2022/04/21 01:34:58;;;;;;;10.50;9.50;;;3.80;99.90;;;;;;5066649;28;20205;-76
2022/04/21 01:42:56;;;;;;;11.13;10.13;;;3.80;99.90;;;;;;5084526;28;20205;-77
2022/04/21 01:45:23;;;;;;;10.50;9.50;;;3.90;99.90;;;;;;5093176;28;20197;-77
2022/04/21 01:47:50;;;;;;;11.00;10.00;;;3.80;99.90;;;;;;5093446;28;20477;-77
2022/04/21 01:50:17;;;;;;;11.03;9.93;;;3.80;99.90;;;;;;5087188;28;20221;-76
2022/04/21 01:52:44;;;;;;;11.63;10.43;;;3.80;99.90;;;;;;5081463;28;20209;-75
2022/04/21 01:55:13;;;;;;;10.83;9.83;;;3.80;99.90;;;;;;5081735;28;20198;-75
2022/04/21 01:57:39;;;;;;;11.07;10.03;;;3.80;99.90;;;;;;5087053;28;20670;-75
2022/04/21 02:00:08;;;;;;;10.93;9.93;;;3.80;99.90;;;;;;5081369;28;20190;-75
2022/04/21 02:02:35;;;;;;;12.53;10.23;;;3.80;99.90;;;;;;5081167;28;20455;-75
2022/04/21 02:05:04;;;;;;;10.97;9.87;;;3.80;99.90;;;;;;5082948;28;20191;-75
2022/04/21 02:07:30;;;;;;;11.23;10.23;;;3.70;99.90;;;;;;5086122;28;20232;-75
2022/04/21 02:09:58;;;;;;;11.33;10.33;;;3.70;99.90;;;;;;5084450;28;20198;-75
2022/04/21 02:12:28;;;;;;;12.23;11.03;;;3.60;99.90;;;;;;5083085;28;20285;-76
2022/04/21 02:14:55;;;;;;;12.17;10.70;;;3.50;99.90;;;;;;5084034;28;20198;-74
2022/04/21 02:17:25;;;;;;;11.80;10.80;;;3.50;99.90;;;;;;5081293;28;20662;-75
2022/04/21 02:19:52;;;;;;;11.67;10.43;;;3.50;99.90;;;;;;5081197;28;20202;-75
2022/04/21 02:22:19;;;;;;;12.60;11.30;;;3.50;99.90;;;;;;5081101;28;20444;-75
2022/04/21 02:24:46;;;;;;;11.20;10.20;;;3.50;99.90;;;;;;5081465;28;20589;-75
2022/04/21 02:27:13;;;;;;;12.00;10.80;;;3.50;99.90;;;;;;5088708;28;20390;-75
2022/04/21 02:29:41;;;;;;;12.27;11.20;;;3.50;99.90;;;;;;5084357;28;20199;-75
2022/04/21 02:32:09;;;;;;;11.87;10.77;;;3.50;99.90;;;;;;5088099;28;20248;-75
2022/04/21 02:34:36;;;;;;;11.70;10.60;;;3.50;99.90;;;;;;5081273;28;20202;-75
2022/04/21 02:37:03;;;;;;;11.87;10.80;;;3.50;99.90;;;;;;5086064;28;20194;-75
2022/04/21 02:39:30;;;;;;;10.90;9.90;;;3.50;99.90;;;;;;5084695;28;20289;-76
2022/04/21 02:41:57;;;;;;;11.53;10.53;;;3.50;99.90;;;;;;5086871;28;20241;-77
2022/04/21 02:44:24;;;;;;;11.93;10.83;;;3.60;99.90;;;;;;5093840;28;20202;-78
2022/04/21 02:46:52;;;;;;;12.87;11.57;;;3.50;99.90;;;;;;5086622;28;20202;-78
2022/04/21 02:49:20;;;;;;;12.10;11.03;;;3.50;99.90;;;;;;5089698;28;20673;-75
2022/04/21 02:51:47;;;;;;;12.43;11.27;;;3.50;99.90;;;;;;5102545;28;20225;-76
2022/04/21 02:59:44;;;;;;;12.13;11.03;;;3.30;99.90;;;;;;5084827;28;20287;-76
2022/04/21 03:02:12;;;;;;;11.97;10.90;;;3.30;99.90;;;;;;5087188;28;20218;-75
2022/04/21 03:04:39;;;;;;;12.40;11.10;;;3.30;99.90;;;;;;5090189;28;20187;-75
2022/04/21 03:07:06;;;;;;;12.70;11.60;;;3.20;99.90;;;;;;5085158;28;20626;-75
2022/04/21 03:09:33;;;;;;;12.83;11.63;;;3.20;99.90;;;;;;5089147;28;20522;-77
2022/04/21 03:12:04;;;;;;;12.90;11.70;;;3.30;99.90;;;;;;5087512;28;20474;-76
2022/04/21 03:14:31;;;;;;;13.17;11.23;;;3.30;99.90;;;;;;5081529;28;20206;-77
2022/04/21 03:16:58;;;;;;;12.23;11.13;;;3.20;99.90;;;;;;5087640;28;20198;-78
2022/04/21 03:19:27;;;;;;;13.73;12.53;;;3.20;99.90;;;;;;5082280;28;20198;-79
2022/04/21 03:24:38;;;;;;;13.77;11.97;;;3.20;99.90;;;;;;5081898;28;20573;-77
2022/04/21 03:27:06;;;;;;;12.73;11.33;;;3.20;99.90;;;;;;5084319;28;20209;-78
2022/04/21 03:29:37;;;;;;;13.97;12.63;;;3.20;99.90;;;;;;5081692;28;20183;-77
2022/04/21 03:32:09;;;;;;;13.70;12.40;;;3.20;99.90;;;;;;5082435;28;20650;-77
2022/04/21 03:34:40;;;;;;;13.93;12.63;;;3.20;99.90;;;;;;5086145;28;20452;-77
2022/04/21 03:37:08;;;;;;;13.37;12.17;;;3.20;99.90;;;;;;5086386;28;20512;-77
2022/04/21 03:39:36;;;;;;;12.63;11.43;;;3.20;99.90;;;;;;5081670;28;20451;-77
2022/04/21 03:42:04;;;;;;;13.57;12.20;;;3.20;99.90;;;;;;5087695;28;20230;-77
2022/04/21 03:44:30;;;;;;;14.50;12.97;;;3.20;99.90;;;;;;5089218;28;20523;-76
2022/04/21 03:46:58;;;;;;;14.60;13.30;;;3.10;99.90;;;;;;5085949;28;20204;-77
2022/04/21 03:49:26;;;;;;;14.73;12.67;;;3.10;99.90;;;;;;5091149;28;20606;-77
2022/04/21 03:51:55;;;;;;;14.47;12.10;;;3.10;99.90;;;;;;5085959;28;20468;-78
2022/04/21 03:54:23;;;;;;;11.60;10.57;;;3.00;99.90;;;;;;5088947;28;20874;-78
2022/04/21 03:56:51;;;;;;;13.77;12.37;;;3.00;99.90;;;;;;5085742;28;20444;-77
2022/04/21 03:59:18;;;;;;;12.93;11.73;;;3.00;99.90;;;;;;5082344;28;20958;-78
2022/04/21 04:01:45;;;;;;;12.80;11.70;;;3.00;99.90;;;;;;5084064;28;20559;-76
2022/04/21 04:04:12;;;;;;;11.57;10.37;;;2.90;99.90;;;;;;5083356;28;20544;-77
2022/04/21 04:12:11;;;;;;;12.70;11.47;;;2.80;99.90;;;;;;5079427;28;20493;-77
2022/04/21 04:14:38;;;;;;;15.03;13.53;;;2.90;99.90;;;;;;5106396;28;20539;-77
2022/04/21 04:17:06;;;;;;;14.00;12.20;;;2.90;99.90;;;;;;5089465;28;20194;-76
2022/04/21 04:19:33;;;;;;;14.67;12.33;;;2.80;99.90;;;;;;5083154;28;20447;-77
2022/04/21 04:22:00;;;;;;;12.47;11.37;;;2.80;99.90;;;;;;5082700;28;20511;-78
2022/04/21 04:24:29;;;;;;;15.90;11.87;;;2.80;99.90;;;;;;5086531;28;20455;-77
2022/04/21 04:26:56;;;;;;;15.60;13.23;;;2.70;99.90;;;;;;5082849;28;20444;-77
2022/04/21 04:29:23;;;;;;;14.73;13.30;;;2.80;99.90;;;;;;5082964;28;20858;-77
2022/04/21 04:31:52;;;;;;;15.23;13.77;;;2.80;99.90;;;;;;5085568;28;20461;-77
2022/04/21 04:34:19;;;;;;;16.23;13.53;;;2.80;99.90;;;;;;5087605;28;20808;-77
2022/04/21 04:36:46;;;;;;;15.03;13.50;;;2.80;99.90;;;;;;5084153;28;20450;-76
2022/04/21 04:39:14;;;;;;;13.70;12.30;;;2.80;99.90;;;;;;5082652;28;20454;-76
2022/04/21 04:44:27;;;;;;;12.70;11.53;;;3.00;99.90;;;;;;5081908;28;20451;-78
2022/04/21 04:46:54;;;;;;;14.10;12.67;;;3.00;99.90;;;;;;5082526;28;20944;-77
2022/04/21 04:49:21;;;;;;;14.07;12.33;;;3.10;99.90;;;;;;5082424;28;20473;-78
2022/04/21 04:51:48;;;;;;;13.97;12.43;;;3.20;99.90;;;;;;5085328;28;20849;-77
2022/04/21 04:54:16;;;;;;;14.77;13.13;;;3.30;99.90;;;;;;5087387;28;20452;-77
2022/04/21 04:56:46;;;;;;;13.53;12.13;;;3.30;99.90;;;;;;5083574;28;20960;-77
2022/04/21 04:59:13;;;;;;;13.00;11.27;;;3.30;99.90;;;;;;5082316;28;20458;-77
2022/04/21 05:01:42;;;;;;;12.97;11.67;;;3.30;99.90;;;;;;5085287;28;20593;-77
2022/04/21 05:04:11;;;;;;;11.80;10.70;;;3.30;99.90;;;;;;5082521;28;20689;-78
2022/04/21 05:06:39;;;;;;;13.17;11.87;;;3.40;99.90;;;;;;5079128;28;20968;-77
2022/04/21 05:09:09;;;;;;;12.27;11.17;;;3.40;99.90;;;;;;5090540;28;20201;-78
2022/04/21 05:11:36;;;;;;;13.40;11.90;;;3.60;99.90;;;;;;5086943;28;20218;-77
2022/04/21 05:14:05;;;;;;;12.37;11.13;;;3.80;99.90;;;;;;5086051;28;20387;-77
2022/04/21 05:16:32;;;;;;;12.47;11.17;;;4.00;99.90;;;;;;5082441;28;20198;-76
2022/04/21 05:19:00;;;;;;;11.80;10.70;;;4.20;99.90;;;;;;5085628;28;20281;-76
2022/04/21 05:21:27;;;;;;;9.87;7.77;;;4.30;99.90;;;;;;5081863;28;20249;-76
2022/04/21 05:23:58;;;;;;;9.27;6.80;;;4.30;99.90;;;;;;5082078;28;20202;-77
2022/04/21 05:26:26;;;;;;;9.03;7.00;;;4.40;99.90;;;;;;5082293;28;20195;-78
2022/04/21 05:28:54;;;;;;;10.53;7.97;;;4.60;99.90;;;;;;5078792;28;20641;-77
2022/04/21 05:31:22;;;;;;;12.20;11.10;;;5.00;99.90;;;;;;5087200;28;20242;-77
2022/04/21 05:33:50;;;;;;;9.07;8.17;;;5.40;99.90;;;;;;5083848;28;20243;-77
2022/04/21 05:36:17;;;;;;;13.87;10.00;;;5.90;99.90;;;;;;5082206;28;20213;-77
2022/04/21 05:38:46;;;;;;;12.03;10.73;;;6.10;99.90;;;;;;5082098;28;20287;-77
2022/04/21 05:41:14;;;;;;;12.47;11.20;;;6.40;99.90;;;;;;5085319;28;20219;-76
2022/04/21 05:43:43;;;;;;;11.30;10.13;;;6.60;99.90;;;;;;5081477;28;20658;-78
2022/04/21 05:46:12;;;;;;;11.40;10.20;;;6.70;99.90;;;;;;5082159;28;20210;-77
2022/04/21 05:48:43;;;;;;;11.70;10.60;;;6.90;99.90;;;;;;5083453;28;20222;-78
2022/04/21 05:51:12;;;;;;;9.70;8.70;;;7.00;99.90;;;;;;5086456;28;20215;-78
2022/04/21 05:53:43;;;;;;;10.23;8.20;;;7.10;99.90;;;;;;5079018;28;20295;-79
2022/04/21 05:56:11;;;;;;;9.07;7.40;;;7.20;99.90;;;;;;5086692;28;20733;-77
2022/04/21 05:58:38;;;;;;;8.70;6.93;;;7.30;99.90;;;;;;5090954;28;20190;-78
2022/04/21 06:01:07;;;;;;;8.40;7.33;;;7.30;99.90;;;;;;5089433;28;20218;-80
2022/04/21 06:03:35;;;;;;;9.53;8.10;;;7.50;99.90;;;;;;5083182;28;20194;-79
2022/04/21 06:06:04;;;;;;;9.73;7.63;;;7.70;99.90;;;;;;5095468;28;20201;-79
2022/04/21 06:08:31;;;;;;;7.77;6.70;;;7.80;99.90;;;;;;5094510;28;20241;-79
2022/04/21 06:10:57;;;;;;;8.83;8.03;;;7.90;99.90;;;;;;5087427;28;20679;-79
2022/04/21 06:13:25;;;;;;;8.90;8.00;;;8.00;99.90;;;;;;5094739;28;20208;-80
2022/04/21 06:15:52;;;;;;;8.83;6.70;;;8.10;99.90;;;;;;5088574;28;20632;-78
2022/04/21 06:18:19;;;;;;;7.67;6.83;;;8.30;99.90;;;;;;5080755;28;20273;-77
2022/04/21 06:20:47;;;;;;;8.67;7.87;;;8.50;99.90;;;;;;5086014;28;20237;-77
2022/04/21 06:23:15;;;;;;;6.90;6.20;;;8.70;99.90;;;;;;5085964;28;20206;-78
2022/04/21 06:25:43;;;;;;;9.57;8.67;;;8.90;99.90;;;;;;5090548;28;20199;-78
2022/04/21 06:28:10;;;;;;;10.87;9.00;;;9.10;99.90;;;;;;5089822;28;20313;-79
2022/04/21 06:30:38;;;;;;;9.03;8.23;;;9.30;99.90;;;;;;5106432;28;20225;-78
2022/04/21 06:33:05;;;;;;;7.67;6.43;;;9.50;99.90;;;;;;5089038;28;20222;-78
2022/04/21 06:35:33;;;;;;;10.33;8.57;;;9.50;99.90;;;;;;5080798;28;20633;-78
2022/04/21 06:38:00;;;;;;;10.50;9.50;;;9.40;99.90;;;;;;5085134;28;20668;-77
2022/04/21 06:40:28;;;;;;;8.40;7.50;;;9.40;99.90;;;;;;5084521;28;20325;-77
2022/04/21 06:42:55;;;;;;;9.77;8.80;;;9.60;99.90;;;;;;5081289;28;20199;-77
2022/04/21 06:48:08;;;;;;;9.53;7.90;;;9.40;99.90;;;;;;5089927;28;20279;-78
2022/04/21 06:50:37;;;;;;;9.30;8.30;;;9.60;99.90;;;;;;5084226;28;20221;-77
2022/04/21 06:53:05;;;;;;;11.23;8.50;;;9.70;99.90;;;;;;5081216;28;20219;-78
2022/04/21 06:55:33;;;;;;;10.67;8.67;;;9.80;99.90;;;;;;5092438;28;20204;-78
2022/04/21 06:58:01;;;;;;;9.23;8.17;;;9.80;99.90;;;;;;5084635;28;20296;-78
2022/04/21 07:00:29;;;;;;;10.03;9.03;;;9.90;99.90;;;;;;5084561;28;20219;-78
2022/04/21 07:02:58;;;;;;;9.77;8.53;;;10.00;99.90;;;;;;5082477;28;20191;-78
2022/04/21 07:05:26;;;;;;;9.63;8.57;;;10.00;99.90;;;;;;5091353;28;20198;-78
2022/04/21 07:07:53;;;;;;;9.60;8.07;;;10.10;99.90;;;;;;5079915;28;20279;-78
2022/04/21 07:10:22;;;;;;;9.90;8.90;;;10.20;99.90;;;;;;5089686;28;20214;-77
2022/04/21 07:12:50;;;;;;;11.93;9.20;;;10.20;99.90;;;;;;5087457;28;20194;-78
2022/04/21 07:15:18;;;;;;;11.10;8.47;;;10.20;99.90;;;;;;5089194;28;20195;-79
2022/04/21 07:17:45;;;;;;;10.73;9.30;;;10.30;99.90;;;;;;5085369;28;20231;-78
2022/04/21 07:20:13;;;;;;;9.43;8.40;;;10.40;99.90;;;;;;5084350;28;20791;-77
2022/04/21 07:22:40;;;;;;;10.07;9.07;;;10.80;99.90;;;;;;5084640;28;20559;-77
2022/04/21 07:25:09;;;;;;;10.27;9.27;;;11.20;99.90;;;;;;5079555;28;20193;-78
2022/04/21 07:27:38;;;;;;;9.37;8.43;;;11.40;99.90;;;;;;5090256;28;20197;-78
2022/04/21 07:30:08;;;;;;;12.50;9.13;;;11.70;99.90;;;;;;5085464;28;20299;-79
2022/04/21 07:32:35;;;;;;;10.90;9.80;;;12.00;99.90;;;;;;5092322;28;20205;-78
2022/04/21 07:35:04;;;;;;;10.50;8.50;;;12.50;99.90;;;;;;5086849;28;20491;-78
2022/04/21 07:37:33;;;;;;;11.50;9.57;;;13.00;99.90;;;;;;5083055;28;20197;-79
2022/04/21 07:40:00;;;;;;;11.27;8.50;;;13.10;99.90;;;;;;5093481;28;20194;-79
2022/04/21 07:42:28;;;;;;;11.17;9.97;;;13.70;99.90;;;;;;5139797;22;20236;-78
2022/04/21 07:44:54;;;;;;;11.53;9.20;;;14.00;99.90;;;;;;5128714;27;20207;-77
2022/04/21 07:47:23;;;;;;;12.20;9.57;;;14.10;99.90;;;;;;5127864;27;20209;-78
2022/04/21 07:49:50;;;;;;;11.67;9.60;;;14.00;99.90;;;;;;5129492;27;20217;-78
2022/04/21 07:55:25;;;;;;;12.93;10.20;;;14.70;99.90;;;;;;5067863;28;20194;-78
2022/04/21 07:57:54;;;;;;;11.17;9.33;;;15.20;99.90;;;;;;5085564;28;20572;-78
2022/04/21 08:00:21;;;;;;;10.53;9.43;;;15.10;99.90;;;;;;5097789;27;20295;-78
2022/04/21 08:02:50;;;;;;;12.83;9.83;;;15.00;99.90;;;;;;5134198;27;20197;-78
2022/04/21 08:05:19;;;;;;;11.80;8.80;;;15.00;99.90;;;;;;5138029;27;20287;-78
2022/04/21 08:07:47;;;;;;;12.27;10.47;;;15.30;99.90;;;;;;5137425;27;20195;-78
2022/04/21 08:10:15;;;;;;;11.43;10.23;;;15.30;99.90;;;;;;5136854;27;20226;-77
2022/04/21 08:12:43;;;;;;;12.43;11.13;;;15.10;99.90;;;;;;5136151;27;20317;-77
2022/04/21 08:15:12;;;;;;;10.57;9.33;;;14.70;99.90;;;;;;5134759;27;20639;-78
2022/04/21 08:17:40;;;;;;;8.87;7.83;;;14.90;99.90;;;;;;5110920;27;20621;-78
2022/04/21 08:20:11;;;;;;;10.47;8.50;;;15.50;99.90;;;;;;5133339;27;20192;-78
2022/04/21 08:22:38;;;;;;;14.03;9.50;;;15.80;99.90;;;;;;5117982;27;20218;-77
2022/04/21 08:33:19;;;;;;;11.10;9.53;;;15.70;99.90;;;;;;5138815;27;20188;-77
2022/04/21 08:35:49;;;;;;;10.30;8.97;;;16.10;99.90;;;;;;5137042;27;20244;-77
2022/04/21 08:38:19;;;;;;;10.03;9.03;;;16.30;98.90;;;;;;5136139;27;20195;-78
2022/04/21 08:40:51;;;;;;;10.43;9.27;;;16.30;98.80;;;;;;5139186;27;20220;-78
2022/04/21 08:43:19;;;;;;;12.10;8.77;;;16.30;99.10;;;;;;5137327;27;20545;-78
2022/04/21 08:45:47;;;;;;;10.87;9.87;;;16.70;99.40;;;;;;5126053;27;20264;-78
2022/04/21 08:48:16;;;;;;;11.37;10.23;;;17.10;99.10;;;;;;5134697;27;20266;-78
2022/04/21 08:50:43;;;;;;;11.10;9.90;;;17.20;97.80;;;;;;5149078;27;20720;-78
2022/04/21 08:53:14;;;;;;;11.50;10.10;;;17.50;98.20;;;;;;5140047;27;20678;-78
2022/04/21 08:55:42;;;;;;;12.77;10.53;;;17.20;98.90;;;;;;5123339;27;20215;-78
2022/04/21 08:58:09;;;;;;;10.87;9.67;;;16.90;98.90;;;;;;5138239;27;20222;-78
2022/04/21 09:00:36;;;;;;;10.83;9.07;;;17.20;99.10;;;;;;5142344;27;20199;-78
2022/04/21 09:03:05;;;;;;;11.03;9.93;;;17.70;99.20;;;;;;5135597;27;20280;-78
2022/04/21 09:05:33;;;;;;;10.37;9.37;;;18.00;97.50;;;;;;5134283;27;20200;-78
2022/04/21 09:08:00;;;;;;;11.10;8.37;;;18.10;97.30;;;;;;5137706;27;20270;-78
2022/04/21 09:10:30;;;;;;;10.77;9.53;;;18.20;97.60;;;;;;5141991;27;20238;-78
2022/04/21 09:12:59;;;;;;;11.40;9.50;;;18.00;98.20;;;;;;5134908;27;20291;-78
2022/04/21 09:15:28;;;;;;;9.13;7.70;;;18.00;97.60;;;;;;5140680;27;20212;-78
2022/04/21 09:17:57;;;;;;;11.00;10.00;;;18.30;97.50;;;;;;5134614;27;20209;-77
2022/04/21 09:20:26;;;;;;;10.23;9.33;;;18.20;96.40;;;;;;5135688;27;20202;-78
2022/04/21 09:22:55;;;;;;;11.53;10.13;;;18.00;96.90;;;;;;5148718;27;20198;-78
2022/04/21 09:25:26;;;;;;;11.57;10.47;;;18.00;95.70;;;;;;5136570;27;20266;-78
2022/04/21 09:27:56;;;;;;;12.93;10.33;;;18.00;95.50;;;;;;5133119;28;20286;-78
2022/04/21 09:30:22;;;;;;;10.27;9.27;;;17.80;96.80;;;;;;5139505;27;20214;-78
2022/04/21 09:32:54;;;;;;;10.27;9.27;;;18.10;96.50;;;;;;5156197;27;20214;-78
2022/04/21 09:35:22;;;;;;;11.23;10.07;;;18.50;96.50;;;;;;5140911;27;20266;-78
2022/04/21 09:37:51;;;;;;;12.37;11.27;;;18.60;96.00;;;;;;5142628;27;20207;-78
2022/04/21 09:40:20;;;;;;;11.13;9.93;;;18.80;95.90;;;;;;5145090;27;20230;-78
2022/04/21 09:42:56;;;;;;;9.30;8.43;;;18.60;95.00;;;;;;5145389;27;20663;-78
2022/04/21 09:48:20;;;;;;;11.13;10.03;;;19.00;95.60;;;;;;5145270;27;20217;-77
2022/04/21 09:50:52;;;;;;;10.90;9.13;;;19.10;93.70;;;;;;5127491;27;20230;-78
2022/04/21 09:53:23;;;;;;;10.93;9.83;;;18.80;94.10;;;;;;5140069;27;20208;-78
2022/04/21 09:55:51;;;;;;;10.80;8.80;;;18.30;94.60;;;;;;5139349;27;20205;-78
2022/04/21 09:58:20;;;;;;;10.87;9.87;;;17.90;94.00;;;;;;5138563;27;20842;-78
2022/04/21 10:00:47;;;;;;;11.60;9.80;;;17.40;95.80;;;;;;5142188;27;20287;-78
2022/04/21 10:03:14;;;;;;;9.17;7.77;;;17.50;94.70;;;;;;5143185;27;20268;-78
2022/04/21 10:05:42;;;;;;;8.77;7.93;;;17.70;95.10;;;;;;5147249;27;20193;-78
2022/04/21 10:08:11;;;;;;;8.70;7.90;;;18.10;95.90;;;;;;5140446;27;20186;-77
2022/04/21 10:10:39;;;;;;;9.70;8.63;;;18.40;94.70;;;;;;5133949;27;20289;-78
2022/04/21 10:13:08;;;;;;;9.83;8.87;;;18.30;93.50;;;;;;5143781;27;20201;-78
2022/04/21 10:15:36;;;;;;;10.20;9.20;;;17.80;93.20;;;;;;5143075;27;20206;-78
2022/04/21 10:18:06;;;;;;;9.40;8.60;;;17.80;94.30;;;;;;5145958;27;20224;-78
2022/04/21 10:20:34;;;;;;;9.13;8.27;;;17.80;94.40;;;;;;5149639;27;20199;-78
2022/04/21 10:23:03;;;;;;;8.63;7.80;;;18.10;94.10;;;;;;5142528;27;20211;-77
2022/04/21 10:25:38;;;;;;;10.47;9.57;;;18.20;94.10;;;;;;5142456;27;20193;-78
2022/04/21 10:28:40;;;;;;;7.73;7.03;;;17.60;93.10;;;;;;5144263;27;20299;-78
2022/04/21 10:31:28;;;;;;;9.13;8.33;;;17.40;93.30;;;;;;5135413;27;20231;-78
2022/04/21 10:33:57;;;;;;;9.20;8.40;;;17.40;94.00;;;;;;5130576;27;20188;-77
2022/04/21 10:36:34;;;;;;;8.27;7.30;;;17.30;93.60;;;;;;5141179;27;20205;-77
2022/04/21 10:39:12;;;;;;;9.80;8.80;;;17.20;94.50;;;;;;5152192;27;20216;-78
2022/04/21 10:41:39;;;;;;;10.30;8.80;;;17.30;94.90;;;;;;5146601;27;20216;-78
2022/04/21 10:44:13;;;;;;;7.40;6.70;;;17.20;94.20;;;;;;5137202;27;20197;-78
2022/04/21 10:46:42;;;;;;;9.13;8.20;;;17.40;94.40;;;;;;5128978;27;20619;-78
2022/04/21 10:49:10;;;;;;;7.07;6.40;;;17.20;94.60;;;;;;5140524;27;20192;-78
2022/04/21 10:58:47;;;;;;;9.77;8.33;;;17.30;93.40;;;;;;5136019;27;20195;-78
2022/04/21 11:01:15;;;;;;;11.93;10.77;;;17.30;94.20;;;;;;5131766;27;20224;-78
2022/04/21 11:03:45;;;;;;;8.90;8.03;;;16.90;93.70;;;;;;5146679;27;20201;-78
2022/04/21 11:06:13;;;;;;;8.07;7.27;;;16.60;94.80;;;;;;5141006;27;20208;-77
2022/04/21 11:08:41;;;;;;;7.53;6.83;;;16.60;95.20;;;;;;5137647;27;20689;-78
2022/04/21 11:11:08;;;;;;;8.33;7.53;;;16.80;95.70;;;;;;5141210;27;20235;-77
2022/04/21 11:13:43;;;;;;;9.10;8.30;;;16.90;95.50;;;;;;5139580;27;20206;-78
2022/04/21 11:16:10;;;;;;;9.80;8.87;;;17.00;94.80;;;;;;5144079;27;20204;-78
2022/04/21 11:18:37;;;;;;;9.70;8.80;;;16.80;95.70;;;;;;5127850;27;20192;-77
2022/04/21 11:21:26;;;;;;;8.37;7.57;;;16.80;95.30;;;;;;5145380;27;20228;-78
2022/04/21 11:24:03;;;;;;;9.50;8.60;;;16.60;95.70;;;;;;5147930;27;20492;-78
2022/04/21 11:26:30;;;;;;;11.80;9.27;;;16.60;96.40;;;;;;5144723;27;20211;-77
2022/04/21 11:29:07;;;;;;;7.87;7.17;;;16.70;95.30;;;;;;5137837;27;20196;-78
2022/04/21 11:31:34;;;;;;;8.60;7.80;;;16.80;96.00;;;;;;5137972;27;20216;-78
2022/04/21 11:34:02;;;;;;;9.10;7.57;;;16.80;94.90;;;;;;5139929;27;20196;-78
2022/04/21 11:36:40;;;;;;;8.13;7.33;;;16.80;95.30;;;;;;5139569;27;20687;-77
2022/04/21 11:39:08;;;;;;;8.07;7.27;;;16.70;95.60;;;;;;5133774;27;20201;-78
2022/04/21 11:41:35;;;;;;;7.97;7.27;;;16.70;96.60;;;;;;5142527;27;20216;-77
2022/04/21 11:44:02;;;;;;;8.17;7.37;;;16.70;96.20;;;;;;5147284;27;20291;-78
2022/04/21 11:46:29;;;;;;;9.00;8.10;;;16.80;96.20;;;;;;5145439;27;20672;-78
2022/04/21 11:49:01;;;;;;;8.27;7.47;;;16.60;95.90;;;;;;5148352;27;20283;-78
2022/04/21 11:51:28;;;;;;;9.27;8.37;;;16.50;96.20;;;;;;5146844;27;20227;-78
2022/04/21 11:54:03;;;;;;;8.20;7.40;;;16.50;96.60;;;;;;5146995;27;20232;-78
2022/04/21 11:56:30;;;;;;;7.50;6.50;;;16.40;96.00;;;;;;5146862;27;20203;-78
2022/04/21 11:58:58;;;;;;;8.20;7.40;;;16.40;96.30;;;;;;5146977;27;20198;-78
2022/04/21 12:06:56;;;;;;;10.00;7.20;;;16.40;96.50;;;;;;5145321;27;20201;-77
2022/04/21 12:09:26;;;;;;;6.60;6.00;;;16.20;97.00;;;;;;5142318;27;20188;-77
2022/04/21 12:11:54;;;;;;;6.70;6.00;;;16.30;97.10;;;;;;5146958;27;20709;-78
2022/04/21 12:14:21;;;;;;;6.07;5.57;;;16.50;96.50;;;;;;5144904;27;20199;-78
2022/04/21 12:16:52;;;;;;;7.33;6.70;;;16.50;96.90;;;;;;5144527;27;20247;-77
2022/04/21 12:19:28;;;;;;;8.90;7.83;;;16.50;97.80;;;;;;5143187;27;20207;-78
2022/04/21 12:22:06;;;;;;;8.40;7.60;;;16.40;96.60;;;;;;5145939;27;20698;-78
2022/04/21 12:24:37;;;;;;;8.00;7.20;;;16.40;97.10;;;;;;5146498;27;20199;-78
2022/04/21 12:27:05;;;;;;;7.37;6.67;;;16.30;96.60;;;;;;5146590;27;20226;-78
2022/04/21 12:29:45;;;;;;;6.60;6.00;;;16.40;97.30;;;;;;5146898;27;20214;-78
2022/04/21 12:32:12;;;;;;;8.30;7.40;;;16.60;97.20;;;;;;5143124;27;20279;-78
2022/04/21 12:34:41;;;;;;;7.57;6.87;;;16.50;96.30;;;;;;5141004;27;20259;-78
2022/04/21 12:37:09;;;;;;;8.07;7.27;;;16.50;97.60;;;;;;5138974;27;20225;-78
2022/04/21 12:39:37;;;;;;;8.43;7.63;;;16.50;97.10;;;;;;5142294;27;20187;-79
2022/04/21 12:42:05;;;;;;;7.90;7.20;;;16.50;97.00;;;;;;5136445;27;20219;-78
2022/04/21 12:44:32;;;;;;;8.33;7.57;;;16.50;97.10;;;;;;5135195;27;20200;-78
2022/04/21 12:47:02;;;;;;;7.30;6.70;;;16.40;96.90;;;;;;5135938;27;20570;-78
2022/04/21 12:49:58;;;;;;;7.33;6.63;;;16.50;97.50;;;;;;5136255;27;20196;-77
2022/04/21 12:52:40;;;;;;;6.57;5.93;;;16.60;97.40;;;;;;5138160;27;20249;-77
2022/04/21 12:55:10;;;;;;;7.17;6.47;;;16.50;96.80;;;;;;5140412;27;20202;-77
2022/04/21 12:57:38;;;;;;;6.87;6.27;;;16.50;97.40;;;;;;5117335;27;20289;-77
2022/04/21 13:00:07;;;;;;;6.90;6.30;;;16.70;97.00;;;;;;5134047;27;20721;-78
2022/04/21 13:02:34;;;;;;;6.63;6.00;;;16.80;96.70;;;;;;5139608;27;20221;-77
2022/04/21 13:05:01;;;;;;;8.93;6.77;;;16.90;97.00;;;;;;5130034;27;20192;-78
2022/04/21 13:07:28;;;;;;;6.60;6.00;;;16.80;97.10;;;;;;5134510;27;20241;-77
2022/04/21 13:09:55;;;;;;;9.77;6.10;;;16.70;97.80;;;;;;5135922;27;20226;-77
2022/04/21 13:12:23;;;;;;;7.33;6.13;;;16.80;98.00;;;;;;5150804;27;20584;-78
2022/04/21 13:14:50;;;;;;;6.80;6.20;;;16.80;97.10;;;;;;5139293;27;20217;-78
2022/04/21 13:17:19;;;;;;;6.63;6.00;;;16.80;96.90;;;;;;5139069;27;20204;-77
2022/04/21 13:19:46;;;;;;;5.90;5.20;;;16.90;97.40;;;;;;5142990;27;20188;-78
2022/04/21 13:22:12;;;;;;;6.00;5.50;;;16.90;97.50;;;;;;5137546;27;20219;-77
2022/04/21 13:24:39;;;;;;;6.43;5.30;;;17.10;97.30;;;;;;5132788;28;20256;-78
2022/04/21 13:27:06;;;;;;;6.77;6.00;;;17.30;96.60;;;;;;5150618;27;20195;-78
2022/04/21 13:29:35;;;;;;;5.93;5.43;;;17.30;96.30;;;;;;5135634;27;20238;-78
2022/04/21 13:34:46;;;;;;;6.67;6.00;;;17.40;97.10;;;;;;5123377;27;20192;-78
2022/04/21 13:37:13;;;;;;;5.97;5.43;;;17.40;96.50;;;;;;5136659;27;20208;-78
2022/04/21 13:39:40;;;;;;;6.63;5.93;;;17.40;96.70;;;;;;5143122;27;20223;-78
2022/04/21 13:42:08;;;;;;;6.13;5.50;;;17.30;95.50;;;;;;5135986;28;20232;-78
2022/04/21 13:44:36;;;;;;;6.47;5.93;;;17.30;96.20;;;;;;5133204;27;20203;-77